Time;durP1;ratioP1;P1;durP2;ratioP2;P2;SDS_P1;SDS_P2;PMS_P1;PMS_P2;Temp;Humidity;BMP_temperature;BMP_pressure;BME280_temperature;BME280_humidity;BME280_pressure;Samples;Min_cycle;Max_cycle;Signal;HPM_P1;HPM_P2
2022/02/08 00:00:59;;;;;;;11.30;2.25;;;;;;;-0.54;82.24;97943.47;2079373;28;20227;-64
2022/02/08 00:02:02;;;;;;;12.20;2.33;;;;;;;-0.61;82.45;97928.06;2080292;28;20245;-64
2022/02/08 00:03:04;;;;;;;12.68;2.55;;;;;;;-0.52;82.46;97939.16;2080058;28;20206;-64
2022/02/08 00:04:05;;;;;;;7.18;1.90;;;;;;;-0.52;81.90;97940.00;2080239;28;20653;-64
2022/02/08 00:05:09;;;;;;;11.75;1.80;;;;;;;-0.52;82.63;97936.59;2079796;28;20204;-64
2022/02/08 00:07:18;;;;;;;5.18;1.83;;;;;;;-0.40;81.95;97949.41;2079478;28;20202;-64
2022/02/08 00:08:20;;;;;;;14.40;2.00;;;;;;;-0.38;81.87;97949.41;2080122;28;20642;-64
2022/02/08 00:09:24;;;;;;;5.60;1.73;;;;;;;-0.38;81.75;97950.25;2078739;28;20200;-64
2022/02/08 00:10:27;;;;;;;3.92;1.77;;;;;;;-0.40;81.96;97947.69;2079639;28;20206;-64
2022/02/08 00:11:29;;;;;;;8.80;1.60;;;;;;;-0.37;82.10;97946.84;2079303;28;20532;-64
2022/02/08 00:12:30;;;;;;;11.00;2.17;;;;;;;-0.38;82.12;97947.69;2079877;28;20202;-64
2022/02/08 00:13:32;;;;;;;11.55;2.20;;;;;;;-0.41;82.14;97935.69;2080145;28;20191;-64
2022/02/08 00:14:34;;;;;;;8.63;1.67;;;;;;;-0.29;81.61;97947.66;2079295;28;20210;-64
2022/02/08 00:15:35;;;;;;;6.05;1.55;;;;;;;-0.27;81.25;97943.34;2078951;28;20219;-64
2022/02/08 00:16:37;;;;;;;9.38;1.73;;;;;;;-0.26;81.36;97950.19;2079524;28;20231;-64
2022/02/08 00:17:39;;;;;;;7.80;1.88;;;;;;;-0.26;81.46;97941.63;2080099;28;20207;-64
2022/02/08 00:18:40;;;;;;;4.80;1.75;;;;;;;-0.27;81.68;97940.78;2080240;28;20211;-64
2022/02/08 00:19:41;;;;;;;7.75;1.50;;;;;;;-0.23;81.21;97941.63;2080074;28;20753;-64
2022/02/08 00:20:43;;;;;;;10.98;1.98;;;;;;;-0.20;81.42;97941.59;2078332;28;20232;-65
2022/02/08 00:21:45;;;;;;;8.20;1.48;;;;;;;-0.21;81.36;97943.31;2079845;28;20199;-64
2022/02/08 00:22:46;;;;;;;7.85;1.95;;;;;;;-0.16;81.53;97947.59;2079929;28;20203;-64
2022/02/08 00:23:49;;;;;;;14.07;2.00;;;;;;;-0.33;81.63;97917.66;2079974;28;20226;-65
2022/02/08 00:24:50;;;;;;;3.95;1.50;;;;;;;-0.14;81.23;97943.28;2079169;28;20253;-64
2022/02/08 00:25:52;;;;;;;7.50;1.85;;;;;;;-0.11;81.31;97943.28;2079538;28;20234;-64
2022/02/08 00:26:54;;;;;;;5.82;1.63;;;;;;;-0.11;81.41;97944.13;2079448;28;20215;-64
2022/02/08 00:27:55;;;;;;;7.97;1.63;;;;;;;-0.14;81.26;97940.72;2078600;28;20207;-64
2022/02/08 00:28:57;;;;;;;9.35;1.65;;;;;;;-0.09;81.13;97946.72;2080052;28;20201;-64
2022/02/08 00:29:58;;;;;;;7.95;1.40;;;;;;;-0.18;80.74;97926.16;2080049;28;20200;-64
2022/02/08 00:31:00;;;;;;;13.13;2.20;;;;;;;-0.06;80.92;97949.25;2079445;28;20226;-64
2022/02/08 00:32:02;;;;;;;18.15;2.20;;;;;;;-0.04;80.69;97944.94;2079528;28;20205;-65
2022/02/08 00:33:04;;;;;;;8.93;2.92;;;;;;;-0.03;80.56;97947.53;2079135;28;20199;-64
2022/02/08 00:34:05;;;;;;;8.82;1.88;;;;;;;-0.01;80.62;97950.09;2079697;28;20222;-64
2022/02/08 00:35:07;;;;;;;6.18;1.88;;;;;;;-0.01;80.52;97944.94;2078838;28;20562;-64
2022/02/08 00:36:08;;;;;;;9.63;1.73;;;;;;;-0.03;80.68;97941.53;2078745;28;20214;-64
2022/02/08 00:37:10;;;;;;;5.05;1.38;;;;;;;-0.12;80.46;97923.53;2079982;28;20195;-64
2022/02/08 00:38:12;;;;;;;18.60;3.40;;;;;;;0.02;80.64;97944.06;2079755;28;20212;-64
2022/02/08 00:39:14;;;;;;;4.70;1.58;;;;;;;0.01;80.42;97943.22;2080052;28;20671;-64
2022/02/08 00:40:17;;;;;;;6.65;1.40;;;;;;;0.05;80.34;97952.63;2079279;28;20207;-64
2022/02/08 00:41:18;;;;;;;14.38;1.77;;;;;;;-0.07;80.36;97932.97;2079199;28;20211;-64
2022/02/08 00:42:22;;;;;;;7.78;2.10;;;;;;;0.08;80.22;97950.06;2080012;28;20201;-65
2022/02/08 00:43:28;;;;;;;10.77;1.52;;;;;;;0.10;79.84;97955.19;2079852;28;20199;-64
2022/02/08 00:44:37;;;;;;;7.32;1.42;;;;;;;-0.05;79.83;97927.81;2079853;28;20202;-64
2022/02/08 00:48:29;;;;;;;7.47;1.77;;;;;;;0.06;80.17;97945.75;2070782;28;20710;-64
2022/02/08 00:49:38;;;;;;;6.00;1.52;;;;;;;-0.01;80.24;97938.06;2079223;28;20199;-65
2022/02/08 00:50:42;;;;;;;5.28;2.15;;;;;;;0.00;80.16;97931.22;2078665;28;20298;-64
2022/02/08 00:51:50;;;;;;;6.03;1.30;;;;;;;0.06;80.18;97940.59;2079770;28;20287;-65
2022/02/08 00:52:51;;;;;;;5.97;1.60;;;;;;;0.06;80.34;97946.63;2078540;28;20196;-64
2022/02/08 00:53:53;;;;;;;4.50;1.80;;;;;;;0.06;80.28;97949.22;2071202;28;20201;-65
2022/02/08 00:54:55;;;;;;;5.35;1.08;;;;;;;0.11;80.00;97952.59;2079060;28;20203;-64
2022/02/08 00:55:57;;;;;;;3.25;1.33;;;;;;;0.07;80.22;97953.47;2078694;28;20217;-64
2022/02/08 00:56:59;;;;;;;7.50;1.50;;;;;;;0.05;80.73;97954.38;2079219;28;20686;-64
2022/02/08 00:58:00;;;;;;;7.55;1.70;;;;;;;0.03;80.52;97949.22;2079670;28;20222;-64
2022/02/08 00:59:03;;;;;;;9.70;1.50;;;;;;;-0.15;80.55;97927.00;2079856;28;20540;-64
2022/02/08 01:00:07;;;;;;;9.05;1.80;;;;;;;-0.03;80.83;97942.38;2079409;28;20207;-64
2022/02/08 01:01:08;;;;;;;6.90;2.03;;;;;;;0.03;80.22;97945.78;2079010;28;20228;-64
2022/02/08 01:02:10;;;;;;;11.80;2.17;;;;;;;0.08;80.58;97944.91;2079749;28;20213;-64
2022/02/08 01:03:12;;;;;;;16.08;3.58;;;;;;;0.13;80.03;97955.19;2078733;28;20196;-64
2022/02/08 01:04:13;;;;;;;4.18;1.92;;;;;;;0.08;80.14;97955.22;2079010;28;20563;-64
2022/02/08 01:05:16;;;;;;;8.15;1.90;;;;;;;0.08;80.23;97950.06;2079288;28;20201;-64
2022/02/08 01:06:20;;;;;;;9.90;2.15;;;;;;;0.13;80.06;97960.34;2079854;28;20196;-64
2022/02/08 01:07:22;;;;;;;5.32;1.52;;;;;;;0.13;80.02;97955.19;2079693;28;20197;-64
2022/02/08 01:08:30;;;;;;;5.60;1.65;;;;;;;0.11;79.40;97955.19;2079814;28;20211;-64
2022/02/08 01:10:53;;;;;;;12.18;1.88;;;;;;;0.09;80.01;97953.47;2079391;28;20230;-64
2022/02/08 01:11:55;;;;;;;7.57;1.38;;;;;;;0.05;80.17;97955.22;2079796;28;20278;-64
2022/02/08 01:12:57;;;;;;;7.72;1.90;;;;;;;0.08;80.14;97957.78;2079768;28;20639;-64
2022/02/08 01:13:59;;;;;;;12.32;1.55;;;;;;;-0.02;79.63;97948.38;2079888;28;20745;-64
2022/02/08 01:15:02;;;;;;;3.63;1.50;;;;;;;0.10;80.18;97958.63;2079674;28;20224;-64
2022/02/08 01:16:05;;;;;;;9.60;1.90;;;;;;;0.06;80.05;97951.78;2078539;28;20251;-64
2022/02/08 01:17:08;;;;;;;14.15;2.47;;;;;;;0.06;80.13;97951.78;2079115;28;20209;-64
2022/02/08 01:18:09;;;;;;;6.82;1.85;;;;;;;0.02;79.98;97955.25;2071275;28;20228;-64
2022/02/08 01:19:12;;;;;;;8.23;1.48;;;;;;;-0.42;80.27;97881.63;2079127;28;20622;-64
2022/02/08 01:20:20;;;;;;;4.20;1.20;;;;;;;0.03;80.10;97951.78;2079293;28;20204;-64
2022/02/08 01:21:23;;;;;;;7.25;1.60;;;;;;;0.05;80.12;97951.78;2079709;28;20290;-64
2022/02/08 01:22:24;;;;;;;5.15;1.35;;;;;;;0.02;80.22;97952.69;2079772;28;20203;-64
2022/02/08 01:23:26;;;;;;;5.32;1.92;;;;;;;0.04;80.36;97953.53;2079183;28;20204;-64
2022/02/08 01:24:27;;;;;;;4.57;0.80;;;;;;;0.01;80.25;97953.53;2079133;28;20211;-64
2022/02/08 01:25:34;;;;;;;9.45;1.85;;;;;;;0.06;80.24;97961.22;2079347;28;20231;-64
2022/02/08 01:26:44;;;;;;;8.88;1.92;;;;;;;0.01;80.25;97952.69;2079095;28;20685;-64
2022/02/08 01:27:52;;;;;;;10.50;1.35;;;;;;;0.05;80.13;97960.38;2077702;28;20201;-64
2022/02/08 01:29:37;;;;;;;4.70;1.20;;;;;;;0.01;80.18;97957.81;2078681;28;20742;-63
2022/02/08 01:30:31;;;;;;;13.05;2.15;;;;;;;0.04;79.93;97957.78;2076871;28;20212;-63
2022/02/08 01:31:37;;;;;;;7.65;1.65;;;;;;;-0.04;80.56;97947.53;2079012;28;20199;-64
2022/02/08 01:35:29;;;;;;;6.25;1.40;;;;;;;-0.02;80.29;97943.22;2077963;28;20205;-64
2022/02/08 01:36:46;;;;;;;12.88;1.60;;;;;;;0.02;80.57;97965.56;2079504;28;20211;-64
2022/02/08 01:39:13;;;;;;;7.88;1.58;;;;;;;0.08;80.24;97969.78;2079842;28;20222;-63
2022/02/08 01:49:16;;;;;;;8.38;1.70;;;;;;;-0.01;81.02;97965.56;2079540;28;20200;-64
2022/02/08 01:50:17;;;;;;;8.68;1.35;;;;;;;-0.01;81.11;97968.97;2079316;28;20202;-64
2022/02/08 01:51:19;;;;;;;5.47;1.23;;;;;;;-0.06;81.07;97956.97;2079691;28;20210;-64
2022/02/08 01:52:21;;;;;;;6.20;1.30;;;;;;;-0.01;81.07;97960.41;2080003;28;20246;-64
2022/02/08 01:53:22;;;;;;;4.70;1.25;;;;;;;-0.06;81.09;97956.97;2080811;28;20198;-64
2022/02/08 01:54:25;;;;;;;11.25;2.15;;;;;;;-0.06;81.40;97959.56;2081086;28;20203;-64
2022/02/08 01:55:27;;;;;;;6.97;1.38;;;;;;;-0.10;80.99;97953.59;2079828;28;20243;-64
2022/02/08 01:56:51;;;;;;;8.38;1.10;;;;;;;-0.13;81.36;97945.03;2080478;28;20232;-64
2022/02/08 01:57:52;;;;;;;8.20;1.48;;;;;;;-0.11;81.26;97956.16;2081141;28;20307;-65
2022/02/08 01:58:54;;;;;;;15.68;1.85;;;;;;;-0.15;81.61;97949.31;2081216;28;20586;-65
2022/02/08 01:59:56;;;;;;;15.20;2.58;;;;;;;-0.14;81.72;97945.88;2081078;28;20199;-65
2022/02/08 02:00:57;;;;;;;4.45;1.40;;;;;;;-0.13;81.34;97945.03;2080491;28;20234;-65
2022/02/08 02:01:59;;;;;;;6.10;1.55;;;;;;;-0.16;81.46;97950.16;2080239;28;20261;-65
2022/02/08 02:03:01;;;;;;;10.02;1.85;;;;;;;-0.19;81.56;97945.06;2080378;28;20297;-65
2022/02/08 02:04:03;;;;;;;3.25;1.17;;;;;;;-0.21;81.84;97950.19;2079826;28;20476;-65
2022/02/08 02:05:14;;;;;;;2.70;0.90;;;;;;;-0.29;81.86;97932.22;2078560;28;20204;-65
2022/02/08 02:06:17;;;;;;;10.52;1.50;;;;;;;-0.19;81.70;97947.63;2080570;28;20240;-65
2022/02/08 02:07:18;;;;;;;6.78;1.20;;;;;;;-0.23;81.77;97944.22;2080960;28;20198;-65
2022/02/08 02:08:20;;;;;;;10.07;1.75;;;;;;;-0.30;81.96;97932.22;2081089;28;20533;-65
2022/02/08 02:09:23;;;;;;;10.80;1.90;;;;;;;-0.28;81.68;97935.63;2080359;28;20207;-65
2022/02/08 02:10:25;;;;;;;5.32;1.38;;;;;;;-0.22;81.78;97946.78;2079906;28;20200;-65
2022/02/08 02:11:27;;;;;;;9.20;1.80;;;;;;;-0.16;81.82;97956.16;2080180;28;20669;-65
2022/02/08 02:12:28;;;;;;;11.38;1.60;;;;;;;-0.12;81.78;97954.44;2080908;28;20196;-66
2022/02/08 02:14:39;;;;;;;8.27;1.60;;;;;;;-0.16;81.77;97945.03;2080891;28;20204;-65
2022/02/08 02:15:41;;;;;;;6.90;1.30;;;;;;;-0.27;81.47;97925.34;2080189;28;20219;-65
2022/02/08 02:16:59;;;;;;;5.03;1.40;;;;;;;-0.14;81.93;97951.03;2080216;28;20199;-65
2022/02/08 02:18:01;;;;;;;3.42;1.20;;;;;;;-0.14;82.24;97953.59;2080121;28;20201;-66
2022/02/08 02:19:02;;;;;;;5.00;1.63;;;;;;;-0.16;82.09;97952.75;2080314;28;20206;-65
2022/02/08 02:20:05;;;;;;;6.53;1.20;;;;;;;-0.22;82.22;97941.63;2080589;28;20209;-65
2022/02/08 02:21:07;;;;;;;7.88;1.75;;;;;;;-0.15;81.98;97957.06;2080199;28;20223;-65
2022/02/08 02:22:12;;;;;;;13.07;1.30;;;;;;;-0.17;82.16;97953.63;2081010;28;20316;-65
2022/02/08 02:23:14;;;;;;;6.68;1.38;;;;;;;-0.23;82.32;97939.06;2080203;28;20200;-66
2022/02/08 02:24:15;;;;;;;8.45;1.25;;;;;;;-0.13;81.59;97947.59;2079926;28;20207;-66
2022/02/08 02:25:24;;;;;;;8.30;1.80;;;;;;;-0.17;82.19;97946.75;2079598;28;20203;-65
2022/02/08 02:26:26;;;;;;;4.20;1.35;;;;;;;-0.17;81.93;97945.91;2080773;28;20211;-65
2022/02/08 02:27:27;;;;;;;6.47;1.38;;;;;;;-0.36;81.98;97919.38;2080005;28;20201;-65
2022/02/08 02:28:29;;;;;;;4.40;1.27;;;;;;;-0.42;82.20;97917.66;2079473;28;20239;-65
2022/02/08 02:29:31;;;;;;;9.15;1.45;;;;;;;-0.22;82.02;97951.94;2080931;28;20878;-65
2022/02/08 02:30:34;;;;;;;7.47;1.60;;;;;;;-0.43;81.84;97915.97;2080258;28;20227;-65
2022/02/08 02:31:35;;;;;;;12.60;2.10;;;;;;;-0.28;82.21;97940.78;2080194;28;20263;-65
2022/02/08 02:32:40;;;;;;;5.82;1.60;;;;;;;-0.31;82.43;97954.53;2079536;28;20475;-65
2022/02/08 02:33:42;;;;;;;5.20;1.42;;;;;;;-0.30;82.07;97950.22;2080328;28;20195;-66
2022/02/08 02:34:48;;;;;;;9.98;1.30;;;;;;;-0.32;82.16;97945.09;2080021;28;20214;-65
2022/02/08 02:35:50;;;;;;;8.32;1.98;;;;;;;-0.31;82.06;97941.66;2080042;28;20227;-65
2022/02/08 02:36:54;;;;;;;11.15;2.03;;;;;;;-0.29;81.92;97950.22;2080713;28;20214;-65
2022/02/08 02:37:58;;;;;;;6.97;1.42;;;;;;;-0.42;81.61;97917.66;2080604;28;20590;-65
2022/02/08 02:39:00;;;;;;;7.35;2.33;;;;;;;-0.35;81.83;97939.97;2080583;28;20562;-65
2022/02/08 02:40:03;;;;;;;3.78;1.50;;;;;;;-0.48;81.97;97920.28;2080709;28;20202;-65
2022/02/08 02:41:04;;;;;;;5.10;1.55;;;;;;;-0.33;81.88;97945.09;2080210;28;20709;-65
2022/02/08 02:42:14;;;;;;;7.40;1.70;;;;;;;-0.37;82.21;97941.69;2080781;28;20680;-65
2022/02/08 02:43:16;;;;;;;2.72;1.20;;;;;;;-0.39;82.11;97938.28;2084188;28;20198;-64
2022/02/08 02:44:20;;;;;;;5.65;1.80;;;;;;;-0.35;81.63;97934.81;2084225;28;20673;-65
2022/02/08 02:45:22;;;;;;;4.45;1.30;;;;;;;-0.37;81.56;97931.41;2078980;28;20201;-65
2022/02/08 02:46:24;;;;;;;3.17;1.35;;;;;;;-0.42;81.90;97931.41;2080104;28;20199;-65
2022/02/08 02:47:26;;;;;;;6.95;1.65;;;;;;;-0.41;82.06;97934.84;2080596;28;20531;-65
2022/02/08 02:48:29;;;;;;;5.82;1.25;;;;;;;-0.41;82.14;97932.28;2080437;28;20249;-65
2022/02/08 02:49:30;;;;;;;4.70;1.17;;;;;;;-0.40;81.81;97936.53;2080517;28;20216;-65
2022/02/08 02:50:32;;;;;;;7.07;1.75;;;;;;;-0.63;82.09;97910.88;2078793;28;20226;-65
2022/02/08 02:51:33;;;;;;;11.25;1.80;;;;;;;-0.49;82.30;97941.72;2079893;28;20204;-65
2022/02/08 02:52:35;;;;;;;7.38;1.75;;;;;;;-0.50;82.37;97940.88;2078448;28;20199;-65
2022/02/08 02:53:37;;;;;;;6.20;1.85;;;;;;;-0.48;82.28;97953.72;2080611;28;20866;-65
2022/02/08 02:54:38;;;;;;;2.25;1.05;;;;;;;-0.50;82.48;97948.59;2079694;28;20874;-65
2022/02/08 02:55:39;;;;;;;8.45;1.70;;;;;;;-0.52;82.52;97954.59;2080188;28;20597;-65
2022/02/08 02:56:42;;;;;;;12.27;1.80;;;;;;;-0.56;82.71;97940.88;2080757;28;20603;-65
2022/02/08 02:57:47;;;;;;;6.10;1.63;;;;;;;-0.64;82.85;97930.63;2080594;28;20205;-65
2022/02/08 02:58:50;;;;;;;7.20;1.40;;;;;;;-0.57;82.48;97946.03;2079694;28;20199;-65
2022/02/08 03:00:01;;;;;;;5.22;1.80;;;;;;;-0.57;83.13;97946.03;2080040;28;20598;-65
2022/02/08 03:19:21;;;;;;;6.00;1.42;;;;;;;-0.70;83.47;97935.78;2070820;28;20210;-65
2022/02/08 03:20:23;;;;;;;4.47;1.40;;;;;;;-0.65;83.57;97952.09;2070487;28;20192;-65
2022/02/08 03:21:25;;;;;;;6.28;1.25;;;;;;;-0.69;83.83;97944.34;2070991;28;20199;-65
2022/02/08 03:22:26;;;;;;;4.55;1.10;;;;;;;-0.63;83.02;97945.22;2062885;28;20204;-64
2022/02/08 03:23:28;;;;;;;9.95;1.48;;;;;;;-0.63;83.21;97942.63;2063063;28;20218;-65
2022/02/08 03:24:30;;;;;;;9.15;1.55;;;;;;;-0.63;83.52;97946.91;2070775;28;20207;-65
2022/02/08 03:25:31;;;;;;;6.72;1.60;;;;;;;-0.58;83.58;97952.91;2070379;28;20228;-65
2022/02/08 03:26:33;;;;;;;8.50;1.73;;;;;;;-0.58;83.50;97952.06;2070776;28;20294;-65
2022/02/08 03:27:34;;;;;;;7.85;1.50;;;;;;;-0.62;83.38;97952.06;2070700;28;20584;-65
2022/02/08 03:28:36;;;;;;;2.47;1.17;;;;;;;-0.72;83.56;97941.81;2070480;28;20205;-65
2022/02/08 03:29:38;;;;;;;3.95;1.48;;;;;;;-0.68;84.02;97961.53;2070848;28;20216;-65
2022/02/08 03:30:39;;;;;;;4.45;1.48;;;;;;;-0.69;83.98;97962.38;2070436;28;20618;-65
2022/02/08 03:31:41;;;;;;;4.10;1.27;;;;;;;-0.69;84.01;97958.06;2070566;28;20806;-65
2022/02/08 03:32:43;;;;;;;9.55;2.00;;;;;;;-0.60;83.68;97957.19;2070762;28;20191;-65
2022/02/08 03:33:46;;;;;;;4.72;1.42;;;;;;;-0.61;82.87;97948.63;2077320;28;20672;-65
2022/02/08 03:34:48;;;;;;;8.18;1.70;;;;;;;-0.59;83.54;97956.31;2080215;28;20208;-65
2022/02/08 03:35:50;;;;;;;7.35;1.30;;;;;;;-0.84;83.62;97934.97;2079820;28;20230;-65
2022/02/08 03:36:52;;;;;;;10.90;1.88;;;;;;;-0.62;83.76;97964.91;2080353;28;20551;-65
2022/02/08 03:37:58;;;;;;;4.75;1.58;;;;;;;-0.82;83.74;97925.53;2078774;28;20202;-65
2022/02/08 03:39:19;;;;;;;8.05;1.40;;;;;;;-0.62;83.55;97959.78;2080178;28;20550;-65
2022/02/08 03:40:38;;;;;;;5.90;1.42;;;;;;;-0.67;83.57;97953.78;2079111;28;20199;-65
2022/02/08 03:41:45;;;;;;;5.18;1.27;;;;;;;-0.55;83.44;97962.31;2080173;28;20198;-65
2022/02/08 03:42:58;;;;;;;8.40;1.48;;;;;;;-0.63;83.76;97958.06;2078326;28;20617;-65
2022/02/08 03:44:00;;;;;;;17.95;3.45;;;;;;;-0.63;83.83;97955.50;2079771;28;20196;-65
2022/02/08 03:45:06;;;;;;;6.75;2.15;;;;;;;-0.64;83.88;97950.34;2080098;28;20253;-65
2022/02/08 03:46:12;;;;;;;9.90;1.20;;;;;;;-0.64;84.01;97948.63;2079883;28;20223;-65
2022/02/08 03:47:16;;;;;;;4.95;1.58;;;;;;;-0.60;83.68;97954.63;2079106;28;20203;-65
2022/02/08 03:48:21;;;;;;;9.07;1.58;;;;;;;-0.55;83.74;97954.59;2079486;28;20197;-65
2022/02/08 03:49:23;;;;;;;7.63;1.50;;;;;;;-0.56;83.53;97955.47;2079998;28;20231;-65
2022/02/08 03:50:24;;;;;;;5.22;1.27;;;;;;;-0.58;84.26;97954.63;2079882;28;20199;-65
2022/02/08 03:51:29;;;;;;;15.45;1.85;;;;;;;-0.51;84.06;97952.03;2080214;28;20219;-65
2022/02/08 03:52:30;;;;;;;9.23;1.15;;;;;;;-0.52;83.31;97946.88;2079234;28;20238;-65
2022/02/08 03:53:32;;;;;;;6.22;1.90;;;;;;;-0.47;83.48;97947.72;2078587;28;20554;-65
2022/02/08 03:54:34;;;;;;;12.50;2.10;;;;;;;-0.43;83.28;97949.44;2079994;28;20195;-65
2022/02/08 03:55:35;;;;;;;10.90;2.22;;;;;;;-0.45;83.24;97956.28;2079540;28;20222;-65
2022/02/08 03:56:37;;;;;;;9.70;1.77;;;;;;;-0.45;84.58;97966.56;2079899;28;20195;-65
2022/02/08 03:57:38;;;;;;;7.63;1.95;;;;;;;-0.58;84.94;97958.06;2079425;28;20200;-65
2022/02/08 03:58:40;;;;;;;12.85;1.77;;;;;;;-0.51;85.49;97964.03;2071488;28;20200;-65
2022/02/08 03:59:42;;;;;;;4.53;2.13;;;;;;;-0.56;85.08;97953.75;2079553;28;20207;-65
2022/02/08 04:03:07;;;;;;;8.50;1.85;;;;;;;-0.49;84.17;97952.88;2079200;28;20205;-65
2022/02/08 04:04:36;;;;;;;5.00;1.40;;;;;;;-0.43;83.88;97963.16;2079996;28;20201;-65
2022/02/08 04:05:39;;;;;;;10.48;1.95;;;;;;;-0.35;83.52;97962.25;2079303;28;20227;-65
2022/02/08 04:06:42;;;;;;;12.00;1.70;;;;;;;-0.38;83.33;97952.00;2079332;28;20830;-65
2022/02/08 04:07:52;;;;;;;10.77;1.73;;;;;;;-0.33;83.45;97963.09;2079362;28;20192;-65
2022/02/08 04:08:55;;;;;;;4.32;1.42;;;;;;;-0.28;83.27;97957.06;2080012;28;20203;-65
2022/02/08 04:10:03;;;;;;;11.80;1.30;;;;;;;-0.28;83.12;97959.66;2080060;28;20211;-65
2022/02/08 04:11:07;;;;;;;13.75;2.33;;;;;;;-0.29;83.60;97965.69;2078800;28;20219;-65
2022/02/08 04:12:18;;;;;;;10.93;1.70;;;;;;;-0.35;83.43;97955.41;2077484;28;20279;-65
2022/02/08 04:13:27;;;;;;;10.23;1.25;;;;;;;-0.35;83.38;97952.84;2079635;28;20203;-65
2022/02/08 04:14:40;;;;;;;8.80;2.22;;;;;;;-0.26;83.32;97963.06;2079281;28;20248;-65
2022/02/08 04:16:09;;;;;;;11.68;2.10;;;;;;;-0.26;83.43;97960.50;2078424;28;20231;-65
2022/02/08 04:19:50;;;;;;;10.35;2.20;;;;;;;-0.25;83.01;97964.81;2079934;28;20205;-64
2022/02/08 04:32:17;;;;;;;5.78;1.98;;;;;;;-0.16;83.22;97955.31;2070134;28;20239;-65
2022/02/08 04:38:56;;;;;;;8.15;1.60;;;;;;;-0.15;83.07;97969.94;2079840;28;20207;-65
2022/02/08 04:42:04;;;;;;;5.53;1.63;;;;;;;-0.18;83.08;97967.34;2079929;28;20207;-65
2022/02/08 04:43:19;;;;;;;5.00;1.55;;;;;;;-0.20;83.32;97969.94;2079220;28;20198;-65
2022/02/08 04:45:43;;;;;;;8.43;1.70;;;;;;;-0.07;82.93;97975.91;2079306;28;20209;-65
2022/02/08 04:48:14;;;;;;;6.22;1.42;;;;;;;-0.09;82.50;97967.31;2079418;28;20206;-65
2022/02/08 04:49:15;;;;;;;10.25;1.30;;;;;;;-0.10;82.79;97969.03;2079396;28;20199;-65
2022/02/08 04:50:18;;;;;;;10.60;1.67;;;;;;;-0.12;82.68;97963.00;2079289;28;20210;-65
2022/02/08 04:52:24;;;;;;;9.90;1.50;;;;;;;0.03;82.42;97982.72;2079622;28;20235;-65
2022/02/08 04:53:34;;;;;;;11.40;1.73;;;;;;;0.02;82.34;97980.13;2079838;28;20211;-65
2022/02/08 04:54:49;;;;;;;9.77;1.60;;;;;;;-0.08;82.33;97959.59;2079478;28;20205;-65
2022/02/08 04:56:03;;;;;;;7.68;1.60;;;;;;;0.03;82.20;97971.56;2077693;28;20218;-65
2022/02/08 04:59:54;;;;;;;6.03;1.85;;;;;;;0.04;82.12;97975.81;2079820;28;20215;-65
2022/02/08 05:01:24;;;;;;;4.45;1.20;;;;;;;-0.11;82.03;97949.28;2078357;28;20219;-65
2022/02/08 05:34:46;;;;;;;13.98;2.17;;;;;;;0.09;83.36;97933.72;2051654;28;20199;-63
2022/02/08 05:35:36;;;;;;;4.93;1.40;;;;;;;0.23;83.36;97946.53;2048917;28;20204;-63
2022/02/08 05:37:19;;;;;;;9.25;2.42;;;;;;;0.15;83.59;97932.84;2052151;28;20234;-63
2022/02/08 05:45:04;;;;;;;7.05;1.77;;;;;;;0.25;83.23;97952.53;2051846;28;20746;-63
2022/02/08 05:47:11;;;;;;;4.95;1.75;;;;;;;0.32;83.23;97955.94;2080331;28;20201;-63
2022/02/08 05:48:21;;;;;;;9.07;2.72;;;;;;;0.28;83.44;97946.50;2080845;28;20224;-64
2022/02/08 05:49:41;;;;;;;11.88;1.95;;;;;;;0.29;83.19;97954.22;2079847;28;20208;-63
2022/02/08 05:50:55;;;;;;;8.13;3.55;;;;;;;0.31;83.08;97957.63;2079242;28;20220;-63
2022/02/08 05:52:20;;;;;;;13.65;5.22;;;;;;;0.15;82.87;97933.69;2080929;28;20236;-63
2022/02/08 05:53:31;;;;;;;23.35;5.13;;;;;;;0.27;83.16;97960.25;2080849;28;20213;-63
2022/02/08 05:54:32;;;;;;;31.92;13.23;;;;;;;0.21;83.01;97948.25;2080970;28;20204;-63
2022/02/08 05:55:34;;;;;;;13.68;7.80;;;;;;;0.21;82.70;97948.25;2079907;28;20224;-64
2022/02/08 05:56:36;;;;;;;8.55;2.33;;;;;;;0.14;82.79;97936.28;2080346;28;20193;-63
2022/02/08 05:57:38;;;;;;;8.15;1.60;;;;;;;0.31;83.01;97961.94;2081099;28;20201;-64
2022/02/08 05:58:42;;;;;;;5.05;1.50;;;;;;;0.28;83.24;97967.13;2080902;28;20200;-64
2022/02/08 05:59:44;;;;;;;12.88;1.67;;;;;;;0.23;83.13;97961.13;2081025;28;20335;-64
2022/02/08 06:00:46;;;;;;;10.57;2.00;;;;;;;0.28;82.93;97964.56;2080389;28;20224;-64
2022/02/08 06:01:48;;;;;;;8.48;1.75;;;;;;;0.26;83.11;97961.13;2080222;28;20334;-63
2022/02/08 06:02:50;;;;;;;6.03;2.13;;;;;;;0.28;83.30;97962.81;2080269;28;20201;-63
2022/02/08 06:03:51;;;;;;;6.38;1.63;;;;;;;0.18;82.90;97943.97;2087489;28;20400;-64
2022/02/08 06:04:53;;;;;;;8.85;2.13;;;;;;;0.27;83.07;97970.56;2080425;28;20207;-64
2022/02/08 06:05:54;;;;;;;8.07;1.90;;;;;;;0.25;82.95;97957.66;2079800;28;20224;-63
2022/02/08 06:06:56;;;;;;;7.07;1.65;;;;;;;0.33;83.14;97967.94;2080803;28;20217;-64
2022/02/08 06:07:58;;;;;;;9.52;2.47;;;;;;;0.22;83.01;97951.69;2080342;28;20197;-63
2022/02/08 06:08:59;;;;;;;10.07;2.35;;;;;;;0.27;83.21;97963.66;2080312;28;20205;-63
2022/02/08 06:10:01;;;;;;;9.18;2.10;;;;;;;0.31;83.02;97959.34;2080444;28;20200;-64
2022/02/08 06:11:13;;;;;;;15.57;1.52;;;;;;;0.26;83.26;97958.56;2080311;28;20220;-64
2022/02/08 06:12:15;;;;;;;9.45;1.95;;;;;;;0.37;83.05;97967.03;2080018;28;20197;-63
2022/02/08 06:13:18;;;;;;;11.57;1.90;;;;;;;0.29;83.05;97963.66;2080255;28;20194;-64
2022/02/08 06:14:25;;;;;;;10.27;2.28;;;;;;;0.17;83.01;97933.69;2080557;28;20203;-64
2022/02/08 06:15:27;;;;;;;10.00;1.95;;;;;;;0.37;83.38;97967.03;2080447;28;20254;-64
2022/02/08 06:16:28;;;;;;;10.20;2.22;;;;;;;0.36;82.85;97965.34;2080141;28;20861;-63
2022/02/08 06:17:30;;;;;;;8.45;1.88;;;;;;;0.24;82.69;97945.66;2080696;28;20815;-63
2022/02/08 06:18:31;;;;;;;11.68;2.70;;;;;;;0.36;82.91;97963.63;2079779;28;20193;-63
2022/02/08 06:19:33;;;;;;;4.95;2.55;;;;;;;-0.05;82.74;97894.31;2080845;28;20216;-63
2022/02/08 06:20:34;;;;;;;12.68;2.47;;;;;;;0.39;83.09;97965.31;2079315;28;20220;-64
2022/02/08 06:21:36;;;;;;;14.77;2.08;;;;;;;0.39;82.49;97960.16;2077933;28;20196;-63
2022/02/08 06:22:40;;;;;;;10.18;2.47;;;;;;;0.28;82.69;97943.94;2080218;28;20242;-63
2022/02/08 06:23:42;;;;;;;8.07;1.98;;;;;;;0.42;82.64;97967.88;2087729;28;20405;-63
2022/02/08 06:24:43;;;;;;;9.88;2.30;;;;;;;0.46;82.34;97977.31;2080571;28;20208;-64
2022/02/08 06:25:45;;;;;;;8.93;1.70;;;;;;;0.42;82.18;97964.47;2080240;28;20231;-64
2022/02/08 06:26:46;;;;;;;10.13;2.25;;;;;;;0.45;82.25;97972.16;2080831;28;20738;-63
2022/02/08 06:27:50;;;;;;;4.35;1.52;;;;;;;0.41;82.46;97971.31;2080702;28;20243;-63
2022/02/08 06:29:06;;;;;;;13.40;1.80;;;;;;;0.38;82.54;97949.00;2080015;28;20201;-63
2022/02/08 06:30:09;;;;;;;6.97;1.45;;;;;;;0.49;82.25;97974.72;2080009;28;20193;-62
2022/02/08 06:31:11;;;;;;;7.15;2.17;;;;;;;0.44;81.97;97968.72;2080787;28;20193;-62
2022/02/08 06:32:17;;;;;;;12.35;2.13;;;;;;;0.45;82.22;97974.72;2080556;28;20196;-61
2022/02/08 06:33:20;;;;;;;9.82;2.42;;;;;;;0.50;81.91;97978.16;2080716;28;20197;-61
2022/02/08 06:34:28;;;;;;;7.50;2.00;;;;;;;0.42;82.50;97965.31;2080092;28;20242;-61
2022/02/08 06:35:31;;;;;;;10.27;2.00;;;;;;;0.44;82.49;97973.03;2079549;28;20228;-61
2022/02/08 06:36:33;;;;;;;8.60;1.60;;;;;;;0.50;82.47;97973.00;2080739;28;20204;-61
2022/02/08 06:37:35;;;;;;;8.48;2.60;;;;;;;0.47;82.14;97960.09;2080700;28;20718;-61
2022/02/08 06:38:36;;;;;;;12.18;1.85;;;;;;;0.45;82.25;97961.84;2080301;28;20197;-61
2022/02/08 06:39:38;;;;;;;7.18;2.35;;;;;;;0.51;82.03;97959.22;2080240;28;20555;-61
2022/02/08 06:40:42;;;;;;;6.50;1.85;;;;;;;0.50;81.95;97953.22;2080088;28;20220;-61
2022/02/08 06:41:43;;;;;;;8.38;2.00;;;;;;;0.35;81.99;97928.41;2080494;28;20204;-61
2022/02/08 06:42:45;;;;;;;10.05;2.50;;;;;;;0.55;81.80;97955.78;2080455;28;20197;-61
2022/02/08 06:43:47;;;;;;;12.20;1.60;;;;;;;0.51;81.95;97956.66;2080648;28;20203;-62
2022/02/08 06:44:49;;;;;;;11.52;3.10;;;;;;;0.49;82.09;97954.09;2079151;28;20217;-61
2022/02/08 06:45:50;;;;;;;15.02;3.28;;;;;;;0.41;81.93;97939.53;2079527;28;20224;-63
2022/02/08 06:46:51;;;;;;;13.60;2.92;;;;;;;0.49;82.13;97946.38;2080119;28;20236;-65
2022/02/08 06:47:53;;;;;;;12.95;1.88;;;;;;;0.57;81.94;97954.91;2080633;28;20197;-63
2022/02/08 06:48:58;;;;;;;11.02;3.45;;;;;;;0.39;81.85;97936.97;2080667;28;20215;-63
2022/02/08 06:49:59;;;;;;;9.95;2.00;;;;;;;0.54;82.00;97964.38;2080809;28;20197;-63
2022/02/08 06:51:01;;;;;;;18.05;2.75;;;;;;;0.45;81.82;97943.81;2079534;28;20220;-63